Greeneville, Tennessee
Current Conditions -  °F | °C
As of 11:35 AM on Saturday 25 Oct 2014 (Local Time) from KMOR Reporting Station
Clear Clear  
Wind Chill: 15°   Ceiling: Unl
Heat Index: 15°   Visibility: 10mi
Dew Point:   Wind: 3mph
Humidity: 63%   Direction: 230°SW
Pressure: 30.11"   Gusts: NA
Location:  36.16°N, 82.83°W
Report Text: KMOR 251535Z AUTO 23003KT 10SM CLR 15/08 A3011 RMK
Loading
Personal Weather Stations






























Interactive Weather Map
Tropical Storm Tracking
New forecast layout! Learn more

10-Day Weather Forecast

Advertisements
Track Severe Weather on mobile